createdAt,value
2019-04-16T00:02:19.422Z,52.14
2019-04-16T00:05:13.816Z,51.93
2019-04-16T00:07:48.223Z,51.87
2019-04-16T00:10:24.118Z,51.97
2019-04-16T00:12:57.169Z,51.63
2019-04-16T00:15:26.166Z,51.91
2019-04-16T00:17:55.293Z,51.79
2019-04-16T00:20:24.426Z,51.98
2019-04-16T00:22:59.458Z,52.10
2019-04-16T00:25:28.553Z,52.36
2019-04-16T00:27:59.984Z,52.68
2019-04-16T00:30:28.596Z,52.62
2019-04-16T00:32:57.756Z,52.61
2019-04-16T00:35:26.752Z,52.23
2019-04-16T00:37:55.781Z,52.76
2019-04-16T00:40:26.577Z,52.81
2019-04-16T00:42:56.994Z,52.80
2019-04-16T00:45:26.066Z,53.53
2019-04-16T00:47:55.110Z,53.88
2019-04-16T00:50:24.222Z,53.33
2019-04-16T00:52:53.291Z,53.79
2019-04-16T00:55:22.284Z,53.98
2019-04-16T00:57:51.299Z,54.14
2019-04-16T01:00:20.327Z,54.20
2019-04-16T01:02:49.718Z,53.98
2019-04-16T01:05:18.767Z,54.40
2019-04-16T01:07:47.871Z,54.51
2019-04-16T01:10:16.900Z,54.77
2019-04-16T01:12:45.954Z,54.81
2019-04-16T01:15:15.020Z,55.03
2019-04-16T01:17:44.075Z,55.21
2019-04-16T01:20:13.226Z,55.01
2019-04-16T01:22:46.596Z,55.34
2019-04-16T01:25:13.177Z,55.50
2019-04-16T01:27:46.649Z,55.48
2019-04-16T01:30:18.837Z,55.48
2019-04-16T01:33:03.326Z,54.96
2019-04-16T01:35:52.401Z,55.65
2019-04-16T01:38:41.412Z,55.99
2019-04-16T01:41:12.498Z,55.67
2019-04-16T01:43:41.605Z,55.81
2019-04-16T01:46:10.847Z,56.38
2019-04-16T01:48:39.908Z,56.21
2019-04-16T01:51:08.967Z,56.52
2019-04-16T01:53:38.053Z,56.19
2019-04-16T01:56:07.088Z,56.25
2019-04-16T01:58:36.224Z,56.36
2019-04-16T02:01:05.230Z,56.42
2019-04-16T02:03:34.258Z,56.92
2019-04-16T02:06:03.341Z,56.50
2019-04-16T02:08:32.350Z,56.73
2019-04-16T02:11:01.523Z,56.69
2019-04-16T02:13:30.720Z,57.10
2019-04-16T02:15:59.948Z,57.66
2019-04-16T02:18:29.818Z,57.59
2019-04-16T02:20:59.928Z,57.23
2019-04-16T02:23:29.043Z,57.47
2019-04-16T02:25:58.054Z,58.33
2019-04-16T02:28:28.345Z,58.22
2019-04-16T02:30:58.141Z,58.31
2019-04-16T02:33:27.171Z,58.33
2019-04-16T02:35:56.252Z,58.05
2019-04-16T02:38:25.264Z,57.64
2019-04-16T02:40:54.367Z,57.85
2019-04-16T02:43:23.390Z,57.99
2019-04-16T02:45:56.809Z,57.71
2019-04-16T02:48:23.463Z,58.66
2019-04-16T02:51:05.309Z,59.00
2019-04-16T02:53:54.548Z,59.14
2019-04-16T02:56:43.185Z,59.13
2019-04-16T02:59:16.061Z,59.59
2019-04-16T03:02:04.678Z,59.88
2019-04-16T03:04:39.155Z,60.31
2019-04-16T03:07:08.184Z,59.33
2019-04-16T03:09:39.999Z,60.16
2019-04-16T03:12:08.263Z,59.92
2019-04-16T03:14:37.432Z,59.37
2019-04-16T03:17:27.749Z,60.25
2019-04-16T03:19:57.809Z,60.19
2019-04-16T03:22:26.821Z,60.78
2019-04-16T03:24:55.881Z,60.86
2019-04-16T03:27:24.935Z,60.50
2019-04-16T03:29:53.943Z,60.57
2019-04-16T03:32:22.978Z,60.36
2019-04-16T03:34:53.395Z,60.84
2019-04-16T03:37:22.960Z,60.58
2019-04-16T03:39:52.005Z,60.35
2019-04-16T03:42:21.041Z,60.36
2019-04-16T03:44:50.166Z,60.51
2019-04-16T03:47:20.046Z,60.56
2019-04-16T03:49:49.258Z,60.45
2019-04-16T03:52:18.329Z,60.61
2019-04-16T03:54:47.326Z,60.69
2019-04-16T03:57:16.362Z,60.57
2019-04-16T03:59:45.518Z,60.62
2019-04-16T04:02:15.545Z,60.94
2019-04-16T04:04:45.587Z,60.95
2019-04-16T04:07:14.594Z,61.31
2019-04-16T04:09:43.685Z,61.32
2019-04-16T04:12:14.154Z,61.07
2019-04-16T04:14:43.655Z,61.04
2019-04-16T04:17:13.125Z,61.46
2019-04-16T04:19:45.661Z,61.45
2019-04-16T04:22:13.341Z,61.29
2019-04-16T04:24:42.456Z,61.27
2019-04-16T04:27:14.769Z,61.40
2019-04-16T04:29:42.563Z,61.51
2019-04-16T04:32:11.652Z,61.33
2019-04-16T04:34:40.690Z,61.14
2019-04-16T04:37:09.745Z,60.86
2019-04-16T04:39:43.686Z,62.00
2019-04-16T04:42:09.807Z,60.95
2019-04-16T04:44:38.895Z,60.79
2019-04-16T04:47:08.066Z,60.81
2019-04-16T04:49:37.098Z,60.85
2019-04-16T04:52:06.152Z,60.91
2019-04-16T04:54:35.136Z,61.06
2019-04-16T04:57:04.241Z,61.15
2019-04-16T04:59:36.531Z,61.03
2019-04-16T05:02:04.381Z,59.90
2019-04-16T05:05:00.207Z,60.45
2019-04-16T05:07:29.418Z,60.54
2019-04-16T05:09:58.618Z,60.88
2019-04-16T05:12:27.573Z,60.28
2019-04-16T05:14:58.509Z,60.03
2019-04-16T05:17:29.548Z,60.10
2019-04-16T05:19:58.712Z,60.09
2019-04-16T05:22:27.747Z,59.99
2019-04-16T05:25:01.034Z,59.60
2019-04-16T05:27:29.494Z,59.04
2019-04-16T05:29:58.881Z,59.68
2019-04-16T05:32:32.979Z,58.82
2019-04-16T05:35:00.069Z,58.61
2019-04-16T05:37:29.278Z,58.66
2019-04-16T05:39:58.956Z,58.75
2019-04-16T05:42:28.618Z,58.57
2019-04-16T05:44:57.708Z,58.77
2019-04-16T05:47:26.862Z,58.14
2019-04-16T05:49:57.883Z,57.53
2019-04-16T05:52:26.855Z,57.76
2019-04-16T05:55:17.968Z,57.60
2019-04-16T05:57:46.531Z,57.04
2019-04-16T06:00:32.319Z,56.98
2019-04-16T06:03:01.339Z,56.68
2019-04-16T06:05:30.464Z,56.89
2019-04-16T06:08:10.315Z,56.72
2019-04-16T06:10:39.773Z,56.10
2019-04-16T06:13:41.427Z,56.38
2019-04-16T06:16:16.432Z,56.35
2019-04-16T06:19:14.006Z,55.36
2019-04-16T06:22:01.506Z,55.33
2019-04-16T06:24:41.006Z,55.74
2019-04-16T06:27:27.492Z,54.81
2019-04-16T06:30:34.578Z,54.61
2019-04-16T06:33:10.448Z,54.67
2019-04-16T06:36:04.663Z,54.28
2019-04-16T06:39:00.627Z,54.01
2019-04-16T06:41:58.240Z,53.51
2019-04-16T06:44:30.561Z,53.56
2019-04-16T06:47:24.042Z,53.05
2019-04-16T06:50:12.243Z,53.06
2019-04-16T06:53:00.876Z,52.30
2019-04-16T06:55:36.224Z,51.16
2019-04-16T06:58:50.329Z,51.14
2019-04-16T07:01:16.164Z,51.84
2019-04-16T07:04:00.228Z,50.89
2019-04-16T07:07:08.053Z,50.83
2019-04-16T07:09:56.679Z,49.89
2019-04-16T07:12:27.313Z,49.48
2019-04-16T07:14:56.458Z,48.82
2019-04-16T07:17:25.517Z,48.71
2019-04-16T07:19:54.560Z,49.23
2019-04-16T07:22:23.683Z,49.36
2019-04-16T07:24:55.207Z,47.67
2019-04-16T07:27:27.764Z,45.74
2019-04-16T07:30:06.834Z,43.76
2019-04-16T07:32:49.630Z,43.89
2019-04-16T07:35:36.337Z,43.44
2019-04-16T07:38:25.123Z,40.20
2019-04-16T07:41:17.340Z,43.30
2019-04-16T07:44:04.411Z,42.46
2019-04-16T07:46:51.186Z,39.98
2019-04-16T07:49:42.601Z,40.60
2019-04-16T07:52:38.926Z,40.23
2019-04-16T07:55:28.166Z,38.02
2019-04-16T07:57:57.248Z,39.85
2019-04-16T08:00:26.303Z,39.13
2019-04-16T08:02:55.486Z,37.21
2019-04-16T08:05:27.639Z,37.33
2019-04-16T08:07:55.634Z,37.27
2019-04-16T08:10:25.984Z,36.36
2019-04-16T08:13:06.672Z,36.75
2019-04-16T08:15:35.804Z,36.37
2019-04-16T08:18:05.901Z,34.84
2019-04-16T08:20:34.990Z,34.80
2019-04-16T08:23:23.615Z,34.06
2019-04-16T08:26:01.994Z,32.56
2019-04-16T08:28:23.689Z,32.38
2019-04-16T08:30:52.808Z,33.16
2019-04-16T08:33:21.890Z,33.64
2019-04-16T08:35:50.952Z,32.19
2019-04-16T08:38:19.988Z,32.03
2019-04-16T08:40:49.120Z,31.25
2019-04-16T08:43:18.193Z,29.53
2019-04-16T08:45:47.410Z,31.11
2019-04-16T08:48:18.629Z,32.43
2019-04-16T08:50:49.262Z,30.78
2019-04-16T08:53:18.511Z,30.59
2019-04-16T08:55:47.590Z,34.16
2019-04-16T08:58:16.683Z,31.36
2019-04-16T09:00:48.683Z,31.74
2019-04-16T09:03:17.774Z,26.79
2019-04-16T09:05:46.860Z,27.47
2019-04-16T09:08:23.893Z,27.85
2019-04-16T09:10:52.986Z,30.79
2019-04-16T09:13:25.979Z,31.51
2019-04-16T09:15:55.063Z,30.64
2019-04-16T09:18:37.159Z,30.66
2019-04-16T09:21:06.892Z,28.36
2019-04-16T09:23:42.068Z,28.91
2019-04-16T09:26:25.406Z,28.50
2019-04-16T09:29:09.561Z,28.30
2019-04-16T09:31:56.156Z,28.11
2019-04-16T09:34:43.901Z,28.11
2019-04-16T09:37:41.849Z,27.25
2019-04-16T09:40:29.339Z,32.40
2019-04-16T09:42:59.373Z,28.48
2019-04-16T09:45:28.468Z,27.25
2019-04-16T09:47:57.552Z,27.07
2019-04-16T09:50:26.624Z,27.15
2019-04-16T09:52:56.423Z,29.26
2019-04-16T09:55:25.543Z,26.81
2019-04-16T09:57:54.629Z,26.15
2019-04-16T10:00:29.591Z,29.16
2019-04-16T10:03:06.069Z,24.88
2019-04-16T10:05:35.092Z,26.68
2019-04-16T10:08:04.194Z,28.05
2019-04-16T10:10:33.269Z,25.12
2019-04-16T10:13:02.348Z,27.98
2019-04-16T10:15:31.517Z,26.75
2019-04-16T10:18:01.525Z,23.12
2019-04-16T10:20:31.602Z,25.15
2019-04-16T10:23:02.831Z,24.26
2019-04-16T10:25:33.652Z,26.09
2019-04-16T10:28:11.035Z,27.26
2019-04-16T10:30:45.039Z,24.90
2019-04-16T10:33:14.143Z,24.95
2019-04-16T10:35:43.191Z,25.02
2019-04-16T10:38:38.157Z,25.51
2019-04-16T10:41:11.110Z,24.72
2019-04-16T10:43:55.950Z,27.17
2019-04-16T10:46:32.360Z,25.72
2019-04-16T10:49:33.310Z,26.10
2019-04-16T10:52:16.887Z,24.97
2019-04-16T10:55:12.168Z,25.38
2019-04-16T10:58:00.407Z,24.14
2019-04-16T11:00:54.359Z,26.79
2019-04-16T11:03:34.683Z,25.10
2019-04-16T11:06:09.443Z,25.67
2019-04-16T11:08:38.618Z,23.94
2019-04-16T11:11:07.723Z,22.90
2019-04-16T11:13:42.039Z,21.20
2019-04-16T11:16:12.891Z,24.41
2019-04-16T11:18:43.257Z,24.15
2019-04-16T11:21:12.385Z,25.70
2019-04-16T11:23:41.449Z,24.27
2019-04-16T11:26:10.656Z,22.73
2019-04-16T11:28:39.703Z,22.65
2019-04-16T11:31:11.958Z,24.72
2019-04-16T11:33:41.041Z,24.33
2019-04-16T11:36:18.693Z,22.26
2019-04-16T11:38:41.066Z,23.12
2019-04-16T11:41:10.178Z,25.70
2019-04-16T11:43:39.243Z,24.88
2019-04-16T11:46:08.376Z,25.58
2019-04-16T11:48:38.255Z,22.54
2019-04-16T11:51:07.664Z,24.13
2019-04-16T11:53:36.848Z,22.49
2019-04-16T11:56:05.954Z,24.32
2019-04-16T11:58:47.299Z,23.10
2019-04-16T12:01:34.766Z,24.21
2019-04-16T12:04:10.944Z,24.41
2019-04-16T12:07:00.955Z,23.59
2019-04-16T12:09:51.247Z,23.03
2019-04-16T12:12:27.076Z,22.28
2019-04-16T12:15:21.795Z,23.46
2019-04-16T12:18:11.572Z,20.97
2019-04-16T12:20:50.585Z,23.13
2019-04-16T12:23:39.280Z,22.50
2019-04-16T12:26:27.922Z,23.98
2019-04-16T12:29:23.221Z,22.52
2019-04-16T12:32:17.876Z,21.66
2019-04-16T12:35:18.512Z,21.70
2019-04-16T12:38:06.301Z,20.62
2019-04-16T12:40:42.349Z,22.11
2019-04-16T12:43:16.251Z,23.89
2019-04-16T12:45:58.231Z,23.26
2019-04-16T12:48:38.376Z,23.33
2019-04-16T12:51:29.737Z,22.74
2019-04-16T12:54:30.293Z,23.70
2019-04-16T12:57:17.496Z,21.51
2019-04-16T13:00:27.313Z,21.54
2019-04-16T13:03:16.922Z,21.17
2019-04-16T13:06:07.412Z,21.63
2019-04-16T13:09:08.243Z,22.00
2019-04-16T13:12:09.484Z,20.88
2019-04-16T13:15:00.923Z,21.17
2019-04-16T13:18:00.466Z,23.19
2019-04-16T13:20:57.082Z,21.09
2019-04-16T13:23:36.887Z,21.08
2019-04-16T13:26:17.490Z,22.04
2019-04-16T13:29:42.095Z,22.11
2019-04-16T13:32:11.118Z,21.77
2019-04-16T13:34:40.250Z,20.98
2019-04-16T13:37:09.398Z,21.32
2019-04-16T13:39:59.423Z,22.33
2019-04-16T13:42:27.629Z,21.20
2019-04-16T13:45:18.746Z,19.95
2019-04-16T13:47:54.660Z,20.85
2019-04-16T13:50:50.030Z,20.46
2019-04-16T13:53:34.044Z,22.01
2019-04-16T13:56:24.969Z,22.24
2019-04-16T13:59:03.269Z,22.59
2019-04-16T14:01:39.344Z,20.60
2019-04-16T14:04:07.056Z,20.42
2019-04-16T14:06:36.106Z,21.34
2019-04-16T14:09:07.726Z,19.35
2019-04-16T14:11:36.792Z,20.18
2019-04-16T14:14:07.649Z,20.36
2019-04-16T14:16:37.025Z,19.65
2019-04-16T14:19:06.867Z,19.80
2019-04-16T14:21:36.373Z,18.17
2019-04-16T14:24:05.419Z,18.44
2019-04-16T14:26:34.471Z,20.11
2019-04-16T14:29:06.767Z,19.36
2019-04-16T14:31:34.562Z,19.36
2019-04-16T14:34:32.142Z,19.51
2019-04-16T14:37:01.389Z,19.44
2019-04-16T14:39:35.688Z,20.69
2019-04-16T14:42:04.763Z,21.52
2019-04-16T14:44:39.203Z,21.43
2019-04-16T14:47:08.265Z,21.76
2019-04-16T14:49:37.305Z,21.01
2019-04-16T14:52:06.441Z,20.48
2019-04-16T14:54:40.673Z,19.89
2019-04-16T14:57:11.094Z,19.80
2019-04-16T15:00:09.135Z,20.13
2019-04-16T15:02:42.206Z,18.99
2019-04-16T15:05:49.353Z,20.93
2019-04-16T15:08:31.468Z,22.59
2019-04-16T15:11:18.671Z,23.76
2019-04-16T15:14:07.342Z,24.04
2019-04-16T15:16:50.835Z,22.69
2019-04-16T15:19:26.955Z,21.87
2019-04-16T15:22:15.571Z,22.17
2019-04-16T15:24:52.750Z,23.58
2019-04-16T15:27:36.228Z,22.69
2019-04-16T15:30:28.331Z,21.66
2019-04-16T15:33:09.002Z,23.51
2019-04-16T15:35:43.684Z,24.27
2019-04-16T15:38:23.519Z,24.51
2019-04-16T15:40:54.642Z,26.14
2019-04-16T15:43:42.681Z,26.47
2019-04-16T15:46:34.907Z,26.48
2019-04-16T15:49:24.160Z,26.70
2019-04-16T15:52:00.135Z,27.01
2019-04-16T15:54:46.440Z,27.30
2019-04-16T15:57:33.917Z,27.12
2019-04-16T16:00:11.620Z,27.12
2019-04-16T16:03:03.476Z,27.71
2019-04-16T16:05:38.099Z,29.34
2019-04-16T16:08:15.407Z,28.91
2019-04-16T16:10:51.337Z,27.67
2019-04-16T16:13:22.841Z,27.82
2019-04-16T16:15:51.577Z,27.73
2019-04-16T16:18:21.999Z,28.68
2019-04-16T16:20:51.084Z,28.68
2019-04-16T16:23:20.174Z,29.04
2019-04-16T16:25:49.257Z,28.72
2019-04-16T16:28:18.414Z,26.32
2019-04-16T16:30:47.506Z,26.76
2019-04-16T16:33:16.603Z,23.26
2019-04-16T16:35:57.490Z,22.95
2019-04-16T16:38:20.760Z,23.12
2019-04-16T16:40:50.454Z,23.49
2019-04-16T16:43:19.864Z,23.75
2019-04-16T16:46:23.783Z,23.94
2019-04-16T16:48:54.437Z,24.04
2019-04-16T16:51:23.658Z,24.28
2019-04-16T16:53:57.557Z,24.64
2019-04-16T16:57:02.122Z,24.76
2019-04-16T16:59:55.672Z,25.08
2019-04-16T17:02:35.214Z,25.09
2019-04-16T17:05:05.637Z,25.55
2019-04-16T17:07:34.698Z,25.52
2019-04-16T17:10:04.275Z,25.87
2019-04-16T17:12:33.352Z,26.04
2019-04-16T17:15:02.411Z,26.28
2019-04-16T17:17:31.508Z,26.28
2019-04-16T17:20:00.587Z,26.61
2019-04-16T17:22:31.450Z,26.75
2019-04-16T17:25:00.652Z,26.93
2019-04-16T17:27:29.660Z,27.04
2019-04-16T17:29:58.742Z,27.27
2019-04-16T17:32:29.603Z,27.35
2019-04-16T17:34:58.613Z,27.79
2019-04-16T17:37:28.855Z,28.08
2019-04-16T17:40:05.201Z,28.37
2019-04-16T17:42:38.416Z,28.60
2019-04-16T17:45:26.050Z,28.53
2019-04-16T17:48:10.648Z,28.77
2019-04-16T17:50:51.544Z,29.22
2019-04-16T17:53:43.140Z,29.48
2019-04-16T17:56:32.627Z,29.58
2019-04-16T17:59:04.856Z,30.13
2019-04-16T18:01:47.484Z,30.13
2019-04-16T18:04:26.559Z,30.22
2019-04-16T18:07:17.712Z,30.39
2019-04-16T18:10:02.084Z,30.95
2019-04-16T18:12:40.917Z,30.72
2019-04-16T18:15:17.960Z,30.98
2019-04-16T18:17:54.974Z,31.13
2019-04-16T18:20:56.845Z,31.49
2019-04-16T18:23:34.729Z,32.19
2019-04-16T18:26:29.774Z,36.26
2019-04-16T18:29:22.840Z,38.89
2019-04-16T18:32:14.278Z,40.72
2019-04-16T18:34:49.642Z,41.89
2019-04-16T18:37:39.046Z,42.62
2019-04-16T18:40:24.272Z,43.10
2019-04-16T18:43:24.960Z,44.40
2019-04-16T18:46:17.214Z,45.34
2019-04-16T18:48:47.389Z,45.73
2019-04-16T18:51:16.416Z,46.26
2019-04-16T18:53:45.474Z,46.24
2019-04-16T18:56:14.559Z,46.52
2019-04-16T18:58:43.691Z,46.93
2019-04-16T19:01:16.577Z,47.25
2019-04-16T19:03:45.881Z,47.48
2019-04-16T19:06:15.128Z,47.33
2019-04-16T19:08:44.286Z,47.06
2019-04-16T19:11:13.501Z,47.14
2019-04-16T19:13:42.643Z,47.11
2019-04-16T19:16:13.056Z,47.21
2019-04-16T19:18:42.185Z,47.15
2019-04-16T19:21:11.460Z,47.20
2019-04-16T19:23:40.529Z,47.25
2019-04-16T19:26:09.629Z,47.33
2019-04-16T19:28:39.654Z,47.54
2019-04-16T19:31:09.555Z,47.97
2019-04-16T19:33:38.756Z,47.96
2019-04-16T19:36:07.895Z,48.17
2019-04-16T19:38:40.686Z,48.14
2019-04-16T19:41:10.165Z,48.63
2019-04-16T19:43:39.655Z,48.68
2019-04-16T19:46:08.723Z,48.82
2019-04-16T19:48:38.277Z,48.92
2019-04-16T19:51:08.922Z,48.71
2019-04-16T19:53:40.147Z,48.98
2019-04-16T19:56:09.352Z,48.74
2019-04-16T19:58:38.464Z,48.64
2019-04-16T20:01:12.150Z,49.04
2019-04-16T20:03:43.509Z,48.98
2019-04-16T20:06:18.500Z,49.57
2019-04-16T20:08:47.909Z,49.78
2019-04-16T20:11:21.372Z,49.58
2019-04-16T20:13:50.873Z,49.41
2019-04-16T20:16:20.012Z,49.95
2019-04-16T20:18:51.777Z,49.98
2019-04-16T20:21:21.101Z,50.16
2019-04-16T20:23:53.107Z,50.06
2019-04-16T20:26:24.164Z,51.93
2019-04-16T20:28:53.247Z,51.70
2019-04-16T20:31:25.065Z,51.87
2019-04-16T20:33:56.182Z,52.49
2019-04-16T20:36:25.288Z,53.55
2019-04-16T20:38:54.353Z,54.44
2019-04-16T20:41:23.521Z,54.75
2019-04-16T20:43:52.828Z,55.50
2019-04-16T20:46:23.759Z,56.37
2019-04-16T20:49:06.713Z,56.62
2019-04-16T20:51:26.581Z,57.56
2019-04-16T20:53:54.924Z,56.98
2019-04-16T20:56:23.977Z,57.95
2019-04-16T20:58:53.128Z,59.09
2019-04-16T21:01:33.811Z,59.31
2019-04-16T21:04:03.841Z,60.49
2019-04-16T21:06:27.273Z,59.75
2019-04-16T21:08:58.251Z,61.14
2019-04-16T21:11:27.370Z,61.16
2019-04-16T21:13:56.478Z,62.34
2019-04-16T21:16:25.531Z,62.73
2019-04-16T21:18:54.599Z,63.83
2019-04-16T21:21:24.350Z,62.87
2019-04-16T21:23:53.677Z,63.00
2019-04-16T21:26:22.748Z,63.06
2019-04-16T21:29:14.338Z,63.99
2019-04-16T21:31:45.511Z,64.67
2019-04-16T21:34:40.233Z,64.43
2019-04-16T21:37:17.040Z,63.87
2019-04-16T21:39:54.299Z,64.65
2019-04-16T21:42:23.370Z,64.20
2019-04-16T21:44:52.461Z,64.48
2019-04-16T21:47:23.644Z,64.86
2019-04-16T21:49:52.857Z,64.01
2019-04-16T21:52:23.233Z,64.05
2019-04-16T21:54:52.909Z,63.48
2019-04-16T21:57:21.974Z,63.30
2019-04-16T21:59:56.791Z,63.73
2019-04-16T22:02:25.116Z,63.31
2019-04-16T22:04:56.527Z,62.88
2019-04-16T22:07:25.868Z,63.54
2019-04-16T22:09:54.910Z,63.34
2019-04-16T22:12:23.920Z,63.40
2019-04-16T22:14:54.471Z,63.78
2019-04-16T22:17:23.973Z,63.84
2019-04-16T22:19:54.776Z,64.03
2019-04-16T22:22:27.336Z,63.55
2019-04-16T22:24:56.041Z,64.42
2019-04-16T22:27:25.455Z,65.22
2019-04-16T22:29:54.577Z,65.76
2019-04-16T22:32:23.614Z,66.25
2019-04-16T22:34:52.660Z,66.06
2019-04-16T22:37:21.760Z,65.76
2019-04-16T22:40:09.076Z,66.54
2019-04-16T22:42:46.693Z,66.64
2019-04-16T22:45:31.165Z,66.41
2019-04-16T22:48:00.367Z,67.36
2019-04-16T22:50:29.418Z,68.34
2019-04-16T22:52:58.470Z,68.12
2019-04-16T22:55:27.529Z,67.93
2019-04-16T22:57:56.571Z,68.32
2019-04-16T23:00:36.804Z,68.00
2019-04-16T23:03:05.857Z,69.26
2019-04-16T23:05:34.863Z,69.21
2019-04-16T23:08:03.876Z,68.14
2019-04-16T23:10:32.947Z,68.80
2019-04-16T23:13:02.058Z,69.45
2019-04-16T23:15:31.998Z,69.51
2019-04-16T23:18:01.076Z,70.53
2019-04-16T23:20:33.546Z,69.87
2019-04-16T23:23:02.447Z,70.56
2019-04-16T23:25:31.506Z,70.05
2019-04-16T23:28:00.535Z,69.89
2019-04-16T23:30:29.628Z,71.25
2019-04-16T23:33:00.053Z,71.34
2019-04-16T23:35:29.615Z,71.33
2019-04-16T23:38:00.893Z,70.65
2019-04-16T23:40:29.658Z,71.44
2019-04-16T23:43:18.835Z,71.53
2019-04-16T23:46:18.438Z,71.14
2019-04-16T23:48:57.798Z,71.74
2019-04-16T23:51:33.022Z,72.15
2019-04-16T23:54:12.889Z,72.65
2019-04-16T23:56:54.731Z,72.34
2019-04-16T23:59:32.727Z,72.20
